sensor_id;sensor_type;location;lat;lon;timestamp;P1;durP1;ratioP1;P2;durP2;ratioP2
70342;SDS011;57767;42.068;24.752;2023-04-15T00:00:12;6.40;;;3.53;;
70342;SDS011;57767;42.068;24.752;2023-04-15T00:01:14;5.05;;;3.97;;
70342;SDS011;57767;42.068;24.752;2023-04-15T00:02:20;6.10;;;3.90;;
70342;SDS011;57767;42.068;24.752;2023-04-15T00:03:22;7.55;;;3.78;;
70342;SDS011;57767;42.068;24.752;2023-04-15T00:04:24;6.68;;;4.50;;
70342;SDS011;57767;42.068;24.752;2023-04-15T00:05:26;11.93;;;4.72;;
70342;SDS011;57767;42.068;24.752;2023-04-15T00:06:29;7.28;;;5.40;;
70342;SDS011;57767;42.068;24.752;2023-04-15T00:07:31;10.98;;;5.53;;
70342;SDS011;57767;42.068;24.752;2023-04-15T00:08:33;6.20;;;4.28;;
70342;SDS011;57767;42.068;24.752;2023-04-15T00:09:35;6.95;;;4.80;;
70342;SDS011;57767;42.068;24.752;2023-04-15T00:10:37;10.93;;;5.47;;
70342;SDS011;57767;42.068;24.752;2023-04-15T00:11:39;9.68;;;6.30;;
70342;SDS011;57767;42.068;24.752;2023-04-15T00:12:40;12.52;;;6.10;;
70342;SDS011;57767;42.068;24.752;2023-04-15T00:13:42;13.70;;;6.97;;
70342;SDS011;57767;42.068;24.752;2023-04-15T00:14:45;11.88;;;7.20;;
70342;SDS011;57767;42.068;24.752;2023-04-15T00:15:46;11.80;;;6.65;;
70342;SDS011;57767;42.068;24.752;2023-04-15T00:16:48;12.52;;;6.63;;
70342;SDS011;57767;42.068;24.752;2023-04-15T00:17:55;9.35;;;6.78;;
70342;SDS011;57767;42.068;24.752;2023-04-15T00:18:58;9.73;;;4.97;;
70342;SDS011;57767;42.068;24.752;2023-04-15T00:20:00;10.20;;;5.07;;
70342;SDS011;57767;42.068;24.752;2023-04-15T00:21:02;6.55;;;4.55;;
70342;SDS011;57767;42.068;24.752;2023-04-15T00:22:05;7.95;;;4.72;;
70342;SDS011;57767;42.068;24.752;2023-04-15T00:23:07;7.03;;;4.75;;
70342;SDS011;57767;42.068;24.752;2023-04-15T00:24:09;11.93;;;5.22;;
70342;SDS011;57767;42.068;24.752;2023-04-15T00:25:10;8.77;;;5.18;;
70342;SDS011;57767;42.068;24.752;2023-04-15T00:26:12;8.38;;;5.25;;
70342;SDS011;57767;42.068;24.752;2023-04-15T00:27:14;7.13;;;4.88;;
70342;SDS011;57767;42.068;24.752;2023-04-15T00:28:16;9.00;;;5.60;;
70342;SDS011;57767;42.068;24.752;2023-04-15T00:29:19;9.77;;;4.88;;
70342;SDS011;57767;42.068;24.752;2023-04-15T00:30:20;6.28;;;4.95;;
70342;SDS011;57767;42.068;24.752;2023-04-15T00:31:22;8.00;;;5.18;;
70342;SDS011;57767;42.068;24.752;2023-04-15T00:32:24;10.30;;;5.32;;
70342;SDS011;57767;42.068;24.752;2023-04-15T00:33:26;10.18;;;4.72;;
70342;SDS011;57767;42.068;24.752;2023-04-15T00:34:28;7.30;;;5.05;;
70342;SDS011;57767;42.068;24.752;2023-04-15T00:35:30;6.55;;;4.47;;
70342;SDS011;57767;42.068;24.752;2023-04-15T00:36:35;8.40;;;4.88;;
70342;SDS011;57767;42.068;24.752;2023-04-15T00:37:36;8.30;;;5.22;;
70342;SDS011;57767;42.068;24.752;2023-04-15T00:38:38;6.18;;;5.13;;
70342;SDS011;57767;42.068;24.752;2023-04-15T00:39:40;8.20;;;5.47;;
70342;SDS011;57767;42.068;24.752;2023-04-15T00:40:42;7.78;;;5.05;;
70342;SDS011;57767;42.068;24.752;2023-04-15T00:41:45;7.63;;;5.07;;
70342;SDS011;57767;42.068;24.752;2023-04-15T00:42:47;9.30;;;5.40;;
70342;SDS011;57767;42.068;24.752;2023-04-15T00:43:49;9.45;;;5.05;;
70342;SDS011;57767;42.068;24.752;2023-04-15T00:44:51;6.68;;;4.90;;
70342;SDS011;57767;42.068;24.752;2023-04-15T00:45:52;11.07;;;5.30;;
70342;SDS011;57767;42.068;24.752;2023-04-15T00:46:56;6.47;;;5.28;;
70342;SDS011;57767;42.068;24.752;2023-04-15T00:47:58;7.20;;;4.45;;
70342;SDS011;57767;42.068;24.752;2023-04-15T00:49:01;6.20;;;4.68;;
70342;SDS011;57767;42.068;24.752;2023-04-15T00:50:04;8.40;;;4.93;;
70342;SDS011;57767;42.068;24.752;2023-04-15T00:51:07;9.20;;;4.50;;
70342;SDS011;57767;42.068;24.752;2023-04-15T00:52:10;7.10;;;5.15;;
70342;SDS011;57767;42.068;24.752;2023-04-15T00:53:11;7.85;;;4.30;;
70342;SDS011;57767;42.068;24.752;2023-04-15T00:54:13;8.48;;;5.07;;
70342;SDS011;57767;42.068;24.752;2023-04-15T00:55:15;7.38;;;4.50;;
70342;SDS011;57767;42.068;24.752;2023-04-15T00:56:18;9.95;;;4.75;;
70342;SDS011;57767;42.068;24.752;2023-04-15T00:57:24;5.00;;;3.88;;
70342;SDS011;57767;42.068;24.752;2023-04-15T00:58:27;7.80;;;4.25;;
70342;SDS011;57767;42.068;24.752;2023-04-15T00:59:29;6.68;;;4.35;;
70342;SDS011;57767;42.068;24.752;2023-04-15T01:00:31;6.20;;;3.80;;
70342;SDS011;57767;42.068;24.752;2023-04-15T01:01:36;5.50;;;3.88;;
70342;SDS011;57767;42.068;24.752;2023-04-15T01:02:38;5.32;;;3.65;;
70342;SDS011;57767;42.068;24.752;2023-04-15T01:03:41;6.40;;;3.92;;
70342;SDS011;57767;42.068;24.752;2023-04-15T01:04:43;7.50;;;3.38;;
70342;SDS011;57767;42.068;24.752;2023-04-15T01:05:45;5.15;;;3.40;;
70342;SDS011;57767;42.068;24.752;2023-04-15T01:06:47;7.35;;;3.70;;
70342;SDS011;57767;42.068;24.752;2023-04-15T01:07:48;5.25;;;3.22;;
70342;SDS011;57767;42.068;24.752;2023-04-15T01:08:50;4.45;;;3.50;;
70342;SDS011;57767;42.068;24.752;2023-04-15T01:09:52;7.85;;;3.78;;
70342;SDS011;57767;42.068;24.752;2023-04-15T01:10:55;5.35;;;3.35;;
70342;SDS011;57767;42.068;24.752;2023-04-15T01:11:57;7.13;;;4.18;;
70342;SDS011;57767;42.068;24.752;2023-04-15T01:12:59;5.63;;;3.40;;
70342;SDS011;57767;42.068;24.752;2023-04-15T01:14:01;4.63;;;3.40;;
70342;SDS011;57767;42.068;24.752;2023-04-15T01:15:03;6.28;;;3.78;;
70342;SDS011;57767;42.068;24.752;2023-04-15T01:16:06;6.20;;;3.80;;
70342;SDS011;57767;42.068;24.752;2023-04-15T01:17:09;5.72;;;3.83;;
70342;SDS011;57767;42.068;24.752;2023-04-15T01:18:10;7.43;;;3.65;;
70342;SDS011;57767;42.068;24.752;2023-04-15T01:19:12;6.70;;;3.90;;
70342;SDS011;57767;42.068;24.752;2023-04-15T01:20:17;5.18;;;4.07;;
70342;SDS011;57767;42.068;24.752;2023-04-15T01:21:18;6.90;;;3.97;;
70342;SDS011;57767;42.068;24.752;2023-04-15T01:22:21;5.88;;;3.70;;
70342;SDS011;57767;42.068;24.752;2023-04-15T01:23:24;6.53;;;3.88;;
70342;SDS011;57767;42.068;24.752;2023-04-15T01:24:26;4.72;;;3.72;;
70342;SDS011;57767;42.068;24.752;2023-04-15T01:25:31;5.63;;;3.58;;
70342;SDS011;57767;42.068;24.752;2023-04-15T01:26:33;6.13;;;3.80;;
70342;SDS011;57767;42.068;24.752;2023-04-15T01:27:38;6.00;;;4.18;;
70342;SDS011;57767;42.068;24.752;2023-04-15T01:28:42;6.10;;;3.88;;
70342;SDS011;57767;42.068;24.752;2023-04-15T01:29:44;6.20;;;3.50;;
70342;SDS011;57767;42.068;24.752;2023-04-15T01:30:46;5.25;;;3.90;;
70342;SDS011;57767;42.068;24.752;2023-04-15T01:31:51;6.78;;;3.67;;
70342;SDS011;57767;42.068;24.752;2023-04-15T01:32:55;5.78;;;3.92;;
70342;SDS011;57767;42.068;24.752;2023-04-15T01:33:57;8.68;;;4.38;;
70342;SDS011;57767;42.068;24.752;2023-04-15T01:34:59;7.78;;;4.13;;
70342;SDS011;57767;42.068;24.752;2023-04-15T01:36:01;5.63;;;3.60;;
70342;SDS011;57767;42.068;24.752;2023-04-15T01:37:04;7.50;;;4.10;;
70342;SDS011;57767;42.068;24.752;2023-04-15T01:38:06;6.78;;;4.47;;
70342;SDS011;57767;42.068;24.752;2023-04-15T01:39:09;11.02;;;6.03;;
70342;SDS011;57767;42.068;24.752;2023-04-15T01:40:11;12.68;;;6.20;;
70342;SDS011;57767;42.068;24.752;2023-04-15T01:41:14;9.23;;;5.57;;
70342;SDS011;57767;42.068;24.752;2023-04-15T01:42:16;11.38;;;5.68;;
70342;SDS011;57767;42.068;24.752;2023-04-15T01:43:17;8.07;;;5.40;;
70342;SDS011;57767;42.068;24.752;2023-04-15T01:44:20;8.75;;;4.60;;
70342;SDS011;57767;42.068;24.752;2023-04-15T01:45:22;10.68;;;4.72;;
70342;SDS011;57767;42.068;24.752;2023-04-15T01:46:23;9.10;;;5.20;;
70342;SDS011;57767;42.068;24.752;2023-04-15T01:47:25;6.75;;;4.72;;
70342;SDS011;57767;42.068;24.752;2023-04-15T01:48:27;11.25;;;4.90;;
70342;SDS011;57767;42.068;24.752;2023-04-15T01:49:29;6.82;;;4.30;;
70342;SDS011;57767;42.068;24.752;2023-04-15T01:50:30;5.05;;;3.60;;
70342;SDS011;57767;42.068;24.752;2023-04-15T01:51:32;4.22;;;3.50;;
70342;SDS011;57767;42.068;24.752;2023-04-15T01:52:34;7.57;;;3.30;;
70342;SDS011;57767;42.068;24.752;2023-04-15T01:53:36;6.15;;;3.53;;
70342;SDS011;57767;42.068;24.752;2023-04-15T01:54:38;5.05;;;3.58;;
70342;SDS011;57767;42.068;24.752;2023-04-15T01:55:39;7.20;;;4.53;;
70342;SDS011;57767;42.068;24.752;2023-04-15T01:56:42;7.47;;;4.10;;
70342;SDS011;57767;42.068;24.752;2023-04-15T01:57:43;7.75;;;3.95;;
70342;SDS011;57767;42.068;24.752;2023-04-15T01:58:45;7.13;;;4.07;;
70342;SDS011;57767;42.068;24.752;2023-04-15T01:59:47;7.00;;;4.25;;
70342;SDS011;57767;42.068;24.752;2023-04-15T02:00:49;6.40;;;3.40;;
70342;SDS011;57767;42.068;24.752;2023-04-15T02:01:51;5.38;;;4.10;;
70342;SDS011;57767;42.068;24.752;2023-04-15T02:02:52;6.60;;;3.97;;
70342;SDS011;57767;42.068;24.752;2023-04-15T02:03:54;9.80;;;4.38;;
70342;SDS011;57767;42.068;24.752;2023-04-15T02:04:57;9.02;;;4.90;;
70342;SDS011;57767;42.068;24.752;2023-04-15T02:05:59;5.47;;;3.97;;
70342;SDS011;57767;42.068;24.752;2023-04-15T02:07:01;7.13;;;4.32;;
70342;SDS011;57767;42.068;24.752;2023-04-15T02:08:02;5.90;;;3.95;;
70342;SDS011;57767;42.068;24.752;2023-04-15T02:09:04;7.97;;;4.40;;
70342;SDS011;57767;42.068;24.752;2023-04-15T02:10:06;8.55;;;3.92;;
70342;SDS011;57767;42.068;24.752;2023-04-15T02:11:08;7.65;;;4.30;;
70342;SDS011;57767;42.068;24.752;2023-04-15T02:12:10;6.85;;;4.13;;
70342;SDS011;57767;42.068;24.752;2023-04-15T02:13:12;4.95;;;3.55;;
70342;SDS011;57767;42.068;24.752;2023-04-15T02:14:15;6.55;;;4.15;;
70342;SDS011;57767;42.068;24.752;2023-04-15T02:15:16;8.18;;;3.63;;
70342;SDS011;57767;42.068;24.752;2023-04-15T02:16:18;6.30;;;3.90;;
70342;SDS011;57767;42.068;24.752;2023-04-15T02:17:20;5.45;;;3.80;;
70342;SDS011;57767;42.068;24.752;2023-04-15T02:18:22;4.65;;;3.50;;
70342;SDS011;57767;42.068;24.752;2023-04-15T02:19:24;5.88;;;3.72;;
70342;SDS011;57767;42.068;24.752;2023-04-15T02:20:26;5.70;;;3.90;;
70342;SDS011;57767;42.068;24.752;2023-04-15T02:21:28;8.32;;;3.70;;
70342;SDS011;57767;42.068;24.752;2023-04-15T02:22:30;8.50;;;3.70;;
70342;SDS011;57767;42.068;24.752;2023-04-15T02:23:32;8.27;;;4.10;;
70342;SDS011;57767;42.068;24.752;2023-04-15T02:24:34;7.55;;;4.95;;
70342;SDS011;57767;42.068;24.752;2023-04-15T02:25:36;5.60;;;4.65;;
70342;SDS011;57767;42.068;24.752;2023-04-15T02:26:39;8.80;;;5.00;;
70342;SDS011;57767;42.068;24.752;2023-04-15T02:27:41;6.78;;;4.47;;
70342;SDS011;57767;42.068;24.752;2023-04-15T02:28:42;6.68;;;4.53;;
70342;SDS011;57767;42.068;24.752;2023-04-15T02:29:44;6.82;;;4.22;;
70342;SDS011;57767;42.068;24.752;2023-04-15T02:30:47;9.32;;;5.22;;
70342;SDS011;57767;42.068;24.752;2023-04-15T02:31:53;8.25;;;4.78;;
70342;SDS011;57767;42.068;24.752;2023-04-15T02:32:55;9.98;;;4.70;;
70342;SDS011;57767;42.068;24.752;2023-04-15T02:33:57;7.85;;;4.43;;
70342;SDS011;57767;42.068;24.752;2023-04-15T02:35:03;10.32;;;6.10;;
70342;SDS011;57767;42.068;24.752;2023-04-15T02:36:06;9.82;;;7.00;;
70342;SDS011;57767;42.068;24.752;2023-04-15T02:37:09;9.77;;;6.28;;
70342;SDS011;57767;42.068;24.752;2023-04-15T02:38:12;8.57;;;4.88;;
70342;SDS011;57767;42.068;24.752;2023-04-15T02:39:15;9.85;;;5.00;;
70342;SDS011;57767;42.068;24.752;2023-04-15T02:40:18;5.65;;;4.13;;
70342;SDS011;57767;42.068;24.752;2023-04-15T02:41:20;5.63;;;4.07;;
70342;SDS011;57767;42.068;24.752;2023-04-15T02:42:27;6.13;;;4.05;;
70342;SDS011;57767;42.068;24.752;2023-04-15T02:43:30;6.07;;;4.25;;
70342;SDS011;57767;42.068;24.752;2023-04-15T02:44:32;6.00;;;4.25;;
70342;SDS011;57767;42.068;24.752;2023-04-15T02:45:35;6.32;;;4.00;;
70342;SDS011;57767;42.068;24.752;2023-04-15T02:46:37;7.00;;;4.63;;
70342;SDS011;57767;42.068;24.752;2023-04-15T02:47:39;8.50;;;4.40;;
70342;SDS011;57767;42.068;24.752;2023-04-15T02:48:44;7.25;;;4.47;;
70342;SDS011;57767;42.068;24.752;2023-04-15T02:49:46;10.25;;;4.53;;
70342;SDS011;57767;42.068;24.752;2023-04-15T02:50:48;5.65;;;4.20;;
70342;SDS011;57767;42.068;24.752;2023-04-15T02:51:50;6.75;;;4.00;;
70342;SDS011;57767;42.068;24.752;2023-04-15T02:52:52;6.50;;;4.10;;
70342;SDS011;57767;42.068;24.752;2023-04-15T02:53:53;6.18;;;3.97;;
70342;SDS011;57767;42.068;24.752;2023-04-15T02:54:55;5.85;;;4.18;;
70342;SDS011;57767;42.068;24.752;2023-04-15T02:56:02;5.47;;;3.58;;
70342;SDS011;57767;42.068;24.752;2023-04-15T02:57:03;5.22;;;3.90;;
70342;SDS011;57767;42.068;24.752;2023-04-15T02:58:07;7.53;;;3.90;;
70342;SDS011;57767;42.068;24.752;2023-04-15T02:59:08;5.28;;;4.20;;
70342;SDS011;57767;42.068;24.752;2023-04-15T03:00:10;6.70;;;4.22;;
70342;SDS011;57767;42.068;24.752;2023-04-15T03:01:13;5.85;;;4.15;;
70342;SDS011;57767;42.068;24.752;2023-04-15T03:02:15;6.18;;;4.35;;
70342;SDS011;57767;42.068;24.752;2023-04-15T03:03:17;5.53;;;4.20;;
70342;SDS011;57767;42.068;24.752;2023-04-15T03:04:19;6.28;;;4.47;;
70342;SDS011;57767;42.068;24.752;2023-04-15T03:05:21;6.95;;;4.80;;
70342;SDS011;57767;42.068;24.752;2023-04-15T03:06:26;7.60;;;5.15;;
70342;SDS011;57767;42.068;24.752;2023-04-15T03:07:27;7.32;;;4.20;;
70342;SDS011;57767;42.068;24.752;2023-04-15T03:08:29;6.57;;;4.43;;
70342;SDS011;57767;42.068;24.752;2023-04-15T03:09:31;5.20;;;4.00;;
70342;SDS011;57767;42.068;24.752;2023-04-15T03:10:33;6.55;;;4.13;;
70342;SDS011;57767;42.068;24.752;2023-04-15T03:11:35;7.50;;;4.10;;
70342;SDS011;57767;42.068;24.752;2023-04-15T03:12:41;6.45;;;4.07;;
70342;SDS011;57767;42.068;24.752;2023-04-15T03:13:42;6.25;;;4.50;;
70342;SDS011;57767;42.068;24.752;2023-04-15T03:14:44;5.20;;;4.55;;
70342;SDS011;57767;42.068;24.752;2023-04-15T03:15:46;6.38;;;3.97;;
70342;SDS011;57767;42.068;24.752;2023-04-15T03:16:48;7.03;;;3.70;;
70342;SDS011;57767;42.068;24.752;2023-04-15T03:17:54;6.55;;;4.90;;
70342;SDS011;57767;42.068;24.752;2023-04-15T03:18:56;9.95;;;6.20;;
70342;SDS011;57767;42.068;24.752;2023-04-15T03:19:58;9.63;;;5.50;;
70342;SDS011;57767;42.068;24.752;2023-04-15T03:20:59;8.25;;;4.65;;
70342;SDS011;57767;42.068;24.752;2023-04-15T03:22:01;6.88;;;4.20;;
70342;SDS011;57767;42.068;24.752;2023-04-15T03:23:03;7.88;;;4.57;;
70342;SDS011;57767;42.068;24.752;2023-04-15T03:24:05;6.57;;;3.83;;
70342;SDS011;57767;42.068;24.752;2023-04-15T03:25:07;4.93;;;3.13;;
70342;SDS011;57767;42.068;24.752;2023-04-15T03:26:09;4.47;;;3.25;;
70342;SDS011;57767;42.068;24.752;2023-04-15T03:27:11;6.10;;;3.55;;
70342;SDS011;57767;42.068;24.752;2023-04-15T03:28:13;3.83;;;3.40;;
70342;SDS011;57767;42.068;24.752;2023-04-15T03:29:15;5.43;;;4.13;;
70342;SDS011;57767;42.068;24.752;2023-04-15T03:30:16;8.45;;;4.10;;
70342;SDS011;57767;42.068;24.752;2023-04-15T03:31:18;4.55;;;3.42;;
70342;SDS011;57767;42.068;24.752;2023-04-15T03:32:20;5.70;;;4.00;;
70342;SDS011;57767;42.068;24.752;2023-04-15T03:33:22;5.80;;;3.47;;
70342;SDS011;57767;42.068;24.752;2023-04-15T03:34:24;5.93;;;3.90;;
70342;SDS011;57767;42.068;24.752;2023-04-15T03:35:26;6.95;;;4.07;;
70342;SDS011;57767;42.068;24.752;2023-04-15T03:36:28;5.18;;;3.70;;
70342;SDS011;57767;42.068;24.752;2023-04-15T03:37:33;4.90;;;3.17;;
70342;SDS011;57767;42.068;24.752;2023-04-15T03:38:35;6.60;;;3.83;;
70342;SDS011;57767;42.068;24.752;2023-04-15T03:39:36;9.15;;;4.65;;
70342;SDS011;57767;42.068;24.752;2023-04-15T03:40:41;6.40;;;3.72;;
70342;SDS011;57767;42.068;24.752;2023-04-15T03:41:43;6.60;;;3.88;;
70342;SDS011;57767;42.068;24.752;2023-04-15T03:42:45;5.75;;;4.20;;
70342;SDS011;57767;42.068;24.752;2023-04-15T03:43:47;8.15;;;4.10;;
70342;SDS011;57767;42.068;24.752;2023-04-15T03:44:48;6.60;;;4.50;;
70342;SDS011;57767;42.068;24.752;2023-04-15T03:45:50;8.55;;;4.40;;
70342;SDS011;57767;42.068;24.752;2023-04-15T03:46:52;7.35;;;4.32;;
70342;SDS011;57767;42.068;24.752;2023-04-15T03:47:54;5.05;;;4.00;;
70342;SDS011;57767;42.068;24.752;2023-04-15T03:49:00;7.68;;;4.28;;
70342;SDS011;57767;42.068;24.752;2023-04-15T03:50:03;6.10;;;4.22;;
70342;SDS011;57767;42.068;24.752;2023-04-15T03:51:05;7.80;;;3.78;;
70342;SDS011;57767;42.068;24.752;2023-04-15T03:52:07;7.15;;;4.00;;
70342;SDS011;57767;42.068;24.752;2023-04-15T03:53:08;6.22;;;3.90;;
70342;SDS011;57767;42.068;24.752;2023-04-15T03:54:10;5.20;;;4.05;;
70342;SDS011;57767;42.068;24.752;2023-04-15T03:55:13;8.82;;;5.00;;
70342;SDS011;57767;42.068;24.752;2023-04-15T03:56:15;8.23;;;5.40;;
70342;SDS011;57767;42.068;24.752;2023-04-15T03:57:17;8.30;;;5.68;;
70342;SDS011;57767;42.068;24.752;2023-04-15T03:58:19;8.25;;;5.47;;
70342;SDS011;57767;42.068;24.752;2023-04-15T03:59:21;6.78;;;4.22;;
70342;SDS011;57767;42.068;24.752;2023-04-15T04:00:22;10.13;;;7.55;;
70342;SDS011;57767;42.068;24.752;2023-04-15T04:01:24;6.65;;;4.72;;
70342;SDS011;57767;42.068;24.752;2023-04-15T04:02:26;6.85;;;4.07;;
70342;SDS011;57767;42.068;24.752;2023-04-15T04:03:28;9.15;;;5.35;;
70342;SDS011;57767;42.068;24.752;2023-04-15T04:04:30;7.68;;;4.95;;
70342;SDS011;57767;42.068;24.752;2023-04-15T04:05:33;7.70;;;4.70;;
70342;SDS011;57767;42.068;24.752;2023-04-15T04:06:37;8.10;;;5.15;;
70342;SDS011;57767;42.068;24.752;2023-04-15T04:07:39;9.23;;;4.93;;
70342;SDS011;57767;42.068;24.752;2023-04-15T04:08:41;8.32;;;4.85;;
70342;SDS011;57767;42.068;24.752;2023-04-15T04:09:43;7.05;;;4.55;;
70342;SDS011;57767;42.068;24.752;2023-04-15T04:10:47;9.75;;;4.95;;
70342;SDS011;57767;42.068;24.752;2023-04-15T04:11:49;9.45;;;4.90;;
70342;SDS011;57767;42.068;24.752;2023-04-15T04:12:51;11.35;;;6.22;;
70342;SDS011;57767;42.068;24.752;2023-04-15T04:13:52;8.77;;;5.22;;
70342;SDS011;57767;42.068;24.752;2023-04-15T04:14:54;8.90;;;5.50;;
70342;SDS011;57767;42.068;24.752;2023-04-15T04:15:56;8.90;;;5.60;;
70342;SDS011;57767;42.068;24.752;2023-04-15T04:16:58;12.95;;;6.30;;
70342;SDS011;57767;42.068;24.752;2023-04-15T04:18:00;15.55;;;6.43;;
70342;SDS011;57767;42.068;24.752;2023-04-15T04:19:02;14.60;;;7.10;;
70342;SDS011;57767;42.068;24.752;2023-04-15T04:20:04;8.98;;;5.53;;
70342;SDS011;57767;42.068;24.752;2023-04-15T04:21:07;11.05;;;6.40;;
70342;SDS011;57767;42.068;24.752;2023-04-15T04:22:08;19.52;;;11.48;;
70342;SDS011;57767;42.068;24.752;2023-04-15T04:23:10;64.38;;;34.88;;
70342;SDS011;57767;42.068;24.752;2023-04-15T04:24:12;33.53;;;21.73;;
70342;SDS011;57767;42.068;24.752;2023-04-15T04:25:14;17.90;;;12.30;;
70342;SDS011;57767;42.068;24.752;2023-04-15T04:26:16;10.93;;;8.82;;
70342;SDS011;57767;42.068;24.752;2023-04-15T04:27:18;11.50;;;7.13;;
70342;SDS011;57767;42.068;24.752;2023-04-15T04:28:20;16.17;;;9.45;;
70342;SDS011;57767;42.068;24.752;2023-04-15T04:29:22;10.10;;;6.75;;
70342;SDS011;57767;42.068;24.752;2023-04-15T04:30:23;7.55;;;5.50;;
70342;SDS011;57767;42.068;24.752;2023-04-15T04:31:25;10.82;;;6.00;;
70342;SDS011;57767;42.068;24.752;2023-04-15T04:32:27;7.47;;;5.13;;
70342;SDS011;57767;42.068;24.752;2023-04-15T04:33:29;9.45;;;5.95;;
70342;SDS011;57767;42.068;24.752;2023-04-15T04:34:31;8.20;;;5.57;;
70342;SDS011;57767;42.068;24.752;2023-04-15T04:35:33;6.65;;;4.70;;
70342;SDS011;57767;42.068;24.752;2023-04-15T04:36:38;5.63;;;4.90;;
70342;SDS011;57767;42.068;24.752;2023-04-15T04:37:39;7.47;;;5.05;;
70342;SDS011;57767;42.068;24.752;2023-04-15T04:38:41;9.45;;;5.30;;
70342;SDS011;57767;42.068;24.752;2023-04-15T04:39:43;8.75;;;4.82;;
70342;SDS011;57767;42.068;24.752;2023-04-15T04:40:44;7.07;;;5.25;;
70342;SDS011;57767;42.068;24.752;2023-04-15T04:41:46;7.13;;;5.13;;
70342;SDS011;57767;42.068;24.752;2023-04-15T04:42:48;7.65;;;5.15;;
70342;SDS011;57767;42.068;24.752;2023-04-15T04:43:50;7.75;;;4.78;;
70342;SDS011;57767;42.068;24.752;2023-04-15T04:44:52;7.72;;;4.30;;
70342;SDS011;57767;42.068;24.752;2023-04-15T04:45:53;9.77;;;5.22;;
70342;SDS011;57767;42.068;24.752;2023-04-15T04:46:56;6.60;;;4.72;;
70342;SDS011;57767;42.068;24.752;2023-04-15T04:47:57;9.85;;;5.38;;
70342;SDS011;57767;42.068;24.752;2023-04-15T04:49:02;9.88;;;5.82;;
70342;SDS011;57767;42.068;24.752;2023-04-15T04:50:04;7.22;;;5.10;;
70342;SDS011;57767;42.068;24.752;2023-04-15T04:51:07;6.93;;;5.18;;
70342;SDS011;57767;42.068;24.752;2023-04-15T04:52:09;8.32;;;4.55;;
70342;SDS011;57767;42.068;24.752;2023-04-15T04:53:11;6.80;;;4.43;;
70342;SDS011;57767;42.068;24.752;2023-04-15T04:54:13;10.15;;;5.75;;
70342;SDS011;57767;42.068;24.752;2023-04-15T04:55:15;7.43;;;5.20;;
70342;SDS011;57767;42.068;24.752;2023-04-15T04:56:17;6.65;;;4.45;;
70342;SDS011;57767;42.068;24.752;2023-04-15T04:57:18;7.22;;;4.40;;
70342;SDS011;57767;42.068;24.752;2023-04-15T04:58:20;5.43;;;3.45;;
70342;SDS011;57767;42.068;24.752;2023-04-15T04:59:22;7.90;;;4.03;;
70342;SDS011;57767;42.068;24.752;2023-04-15T05:00:24;5.53;;;4.03;;
70342;SDS011;57767;42.068;24.752;2023-04-15T05:01:26;6.65;;;3.60;;
70342;SDS011;57767;42.068;24.752;2023-04-15T05:02:27;6.05;;;3.58;;
70342;SDS011;57767;42.068;24.752;2023-04-15T05:03:29;8.15;;;3.50;;
70342;SDS011;57767;42.068;24.752;2023-04-15T05:04:31;5.97;;;3.88;;
70342;SDS011;57767;42.068;24.752;2023-04-15T05:05:33;7.70;;;4.10;;
70342;SDS011;57767;42.068;24.752;2023-04-15T05:06:37;9.82;;;4.30;;
70342;SDS011;57767;42.068;24.752;2023-04-15T05:07:38;8.38;;;4.22;;
70342;SDS011;57767;42.068;24.752;2023-04-15T05:08:40;5.80;;;4.30;;
70342;SDS011;57767;42.068;24.752;2023-04-15T05:09:42;6.57;;;3.85;;
70342;SDS011;57767;42.068;24.752;2023-04-15T05:10:44;5.55;;;4.20;;
70342;SDS011;57767;42.068;24.752;2023-04-15T05:11:46;6.20;;;3.80;;
70342;SDS011;57767;42.068;24.752;2023-04-15T05:12:47;5.72;;;3.70;;
70342;SDS011;57767;42.068;24.752;2023-04-15T05:13:49;4.80;;;3.72;;
70342;SDS011;57767;42.068;24.752;2023-04-15T05:14:51;7.05;;;4.10;;
70342;SDS011;57767;42.068;24.752;2023-04-15T05:15:53;4.57;;;3.50;;
70342;SDS011;57767;42.068;24.752;2023-04-15T05:16:55;5.28;;;3.65;;
70342;SDS011;57767;42.068;24.752;2023-04-15T05:17:57;5.45;;;3.67;;
70342;SDS011;57767;42.068;24.752;2023-04-15T05:18:59;5.32;;;3.72;;
70342;SDS011;57767;42.068;24.752;2023-04-15T05:20:01;6.13;;;3.00;;
70342;SDS011;57767;42.068;24.752;2023-04-15T05:21:04;4.82;;;3.45;;
70342;SDS011;57767;42.068;24.752;2023-04-15T05:22:09;5.65;;;3.95;;
70342;SDS011;57767;42.068;24.752;2023-04-15T05:23:11;6.38;;;3.72;;
70342;SDS011;57767;42.068;24.752;2023-04-15T05:24:12;4.82;;;3.90;;
70342;SDS011;57767;42.068;24.752;2023-04-15T05:25:15;6.60;;;3.60;;
70342;SDS011;57767;42.068;24.752;2023-04-15T05:26:17;4.70;;;3.35;;
70342;SDS011;57767;42.068;24.752;2023-04-15T05:27:19;6.20;;;3.80;;
70342;SDS011;57767;42.068;24.752;2023-04-15T05:28:21;10.95;;;3.67;;
70342;SDS011;57767;42.068;24.752;2023-04-15T05:29:22;3.78;;;3.25;;
70342;SDS011;57767;42.068;24.752;2023-04-15T05:30:24;5.22;;;3.28;;
70342;SDS011;57767;42.068;24.752;2023-04-15T05:31:26;6.32;;;3.40;;
70342;SDS011;57767;42.068;24.752;2023-04-15T05:32:28;3.65;;;3.22;;
70342;SDS011;57767;42.068;24.752;2023-04-15T05:33:30;5.00;;;3.20;;
70342;SDS011;57767;42.068;24.752;2023-04-15T05:34:32;7.97;;;3.05;;
70342;SDS011;57767;42.068;24.752;2023-04-15T05:35:33;5.65;;;3.20;;
70342;SDS011;57767;42.068;24.752;2023-04-15T05:36:36;7.40;;;3.38;;
70342;SDS011;57767;42.068;24.752;2023-04-15T05:37:37;5.13;;;3.70;;
70342;SDS011;57767;42.068;24.752;2023-04-15T05:38:39;4.68;;;3.13;;
70342;SDS011;57767;42.068;24.752;2023-04-15T05:39:41;6.05;;;3.55;;
70342;SDS011;57767;42.068;24.752;2023-04-15T05:40:43;7.32;;;4.10;;
70342;SDS011;57767;42.068;24.752;2023-04-15T05:41:45;8.25;;;4.35;;
70342;SDS011;57767;42.068;24.752;2023-04-15T05:42:47;8.60;;;3.95;;
70342;SDS011;57767;42.068;24.752;2023-04-15T05:43:48;10.65;;;5.65;;
70342;SDS011;57767;42.068;24.752;2023-04-15T05:44:50;7.03;;;3.80;;
70342;SDS011;57767;42.068;24.752;2023-04-15T05:45:52;4.40;;;3.45;;
70342;SDS011;57767;42.068;24.752;2023-04-15T05:46:54;5.05;;;3.60;;
70342;SDS011;57767;42.068;24.752;2023-04-15T05:47:56;4.68;;;3.13;;
70342;SDS011;57767;42.068;24.752;2023-04-15T05:48:57;5.60;;;3.13;;
70342;SDS011;57767;42.068;24.752;2023-04-15T05:49:59;3.42;;;3.00;;
70342;SDS011;57767;42.068;24.752;2023-04-15T05:51:02;6.28;;;3.17;;
70342;SDS011;57767;42.068;24.752;2023-04-15T05:52:03;3.47;;;2.42;;
70342;SDS011;57767;42.068;24.752;2023-04-15T05:53:06;5.15;;;2.40;;
70342;SDS011;57767;42.068;24.752;2023-04-15T05:54:08;4.88;;;2.47;;
70342;SDS011;57767;42.068;24.752;2023-04-15T05:55:10;4.68;;;2.28;;
70342;SDS011;57767;42.068;24.752;2023-04-15T05:56:12;4.38;;;1.95;;
70342;SDS011;57767;42.068;24.752;2023-04-15T05:57:14;6.70;;;2.20;;
70342;SDS011;57767;42.068;24.752;2023-04-15T05:58:16;5.05;;;2.30;;
70342;SDS011;57767;42.068;24.752;2023-04-15T05:59:18;4.03;;;2.13;;
70342;SDS011;57767;42.068;24.752;2023-04-15T06:00:19;4.15;;;2.40;;
70342;SDS011;57767;42.068;24.752;2023-04-15T06:01:21;3.13;;;2.25;;
70342;SDS011;57767;42.068;24.752;2023-04-15T06:02:23;7.55;;;2.30;;
70342;SDS011;57767;42.068;24.752;2023-04-15T06:03:28;3.58;;;2.50;;
70342;SDS011;57767;42.068;24.752;2023-04-15T06:04:31;6.63;;;2.75;;
70342;SDS011;57767;42.068;24.752;2023-04-15T06:05:33;7.75;;;2.92;;
70342;SDS011;57767;42.068;24.752;2023-04-15T06:06:34;6.47;;;3.10;;
70342;SDS011;57767;42.068;24.752;2023-04-15T06:07:36;4.57;;;2.55;;
70342;SDS011;57767;42.068;24.752;2023-04-15T06:08:39;4.38;;;3.28;;